Portada
METAR-TAF:

METAR-TAF

Aeroports :

Tsingtao, Xina

latitud: 36-04N, longitud: 120-20E, altitud: 77 m

Observació

L'informe es va fer fa 29 minuts, a les 02:00 UTC
Vent 6 kt del Nord-Est, variant entre Nord/Nord-Est i Est
Temperatura 10°C
Humitat 87%
Pressió 1019 hPa
Visibilitat: 9000 m
Cel ennuvolat a una alçada de 4000 ft

METAR: ZSQD 160200Z 04003MPS 020V080 9000 BKN040 10/08 Q1019 NOSIG

Hora: 10:29 (02:29 UTC)

Pronòstic

L'informe es va fer fa 7 hores i 17 minuts, a les 19:12 UTC
Pronòstic vàlid del 16 a les 00 UTC al 16 a les 24 UTC
Vent 6 kt del Sud
Visibilitat: 5000 m
Cel ennuvolat a una alçada de 3000 ft
pluja
Evolucionant progressivament
l' 16 a les 12 UTC al 16 a les 13 UTC
Vent 10 kt del Nord/Nord-Oest

TAF: ZSQD 151912Z 1600/1624 18003MPS 5000 -RA BKN030 TX11/1606Z TN03/1621Z BECMG 1612/1613 33005MPS

Observacions i pronòstics meteorològics de més de 4000 aeroports (METAR i TAF).

Les estacions disponibles són els punts grocs i vermells al mapa.

Posi el ratolí al punt desitjat per veure el nom de l'estació.

Feu clic per veure les observacions i els pronòstics meteorològics.

Per canviar el mapa: feu clic els botons verds amb una creu de color negre per apropar; al botó verd amb un guió per allunyar la imatge; o en les fletxes verdes per a mapes adjacents.


METAR-TAF: